sensor_id;sensor_type;location;lat;lon;timestamp;pressure;altitude;pressure_sealevel;temperature;humidity
15674;BME280;7937;48.090;16.212;2022-09-09T00:03:00;97569.75;;;12.09;94.35
15674;BME280;7937;48.090;16.212;2022-09-09T00:06:17;97565.72;;;12.05;94.27
15674;BME280;7937;48.090;16.212;2022-09-09T00:09:28;97564.06;;;12.04;94.50
15674;BME280;7937;48.090;16.212;2022-09-09T00:12:59;97562.63;;;12.00;94.59
15674;BME280;7937;48.090;16.212;2022-09-09T00:16:11;97567.09;;;12.00;94.37
15674;BME280;7937;48.090;16.212;2022-09-09T00:19:23;97570.03;;;11.97;94.44
15674;BME280;7937;48.090;16.212;2022-09-09T00:22:29;97572.78;;;11.95;94.83
15674;BME280;7937;48.090;16.212;2022-09-09T00:25:44;97565.97;;;11.93;94.74
15674;BME280;7937;48.090;16.212;2022-09-09T00:29:00;97575.81;;;11.91;94.61
15674;BME280;7937;48.090;16.212;2022-09-09T00:32:18;97570.81;;;11.88;94.64
15674;BME280;7937;48.090;16.212;2022-09-09T00:35:33;97567.72;;;11.82;94.55
15674;BME280;7937;48.090;16.212;2022-09-09T00:38:46;97561.88;;;11.79;94.88
15674;BME280;7937;48.090;16.212;2022-09-09T00:42:04;97563.97;;;11.75;94.94
15674;BME280;7937;48.090;16.212;2022-09-09T00:48:15;97579.34;;;11.70;95.29
15674;BME280;7937;48.090;16.212;2022-09-09T00:51:29;97573.22;;;11.70;95.18
15674;BME280;7937;48.090;16.212;2022-09-09T00:58:12;97578.06;;;11.65;95.75
15674;BME280;7937;48.090;16.212;2022-09-09T01:01:44;97588.66;;;11.65;95.64
15674;BME280;7937;48.090;16.212;2022-09-09T01:04:47;97595.72;;;11.64;95.90
15674;BME280;7937;48.090;16.212;2022-09-09T01:07:49;97597.28;;;11.67;95.54
15674;BME280;7937;48.090;16.212;2022-09-09T01:10:58;97592.97;;;11.66;95.56
15674;BME280;7937;48.090;16.212;2022-09-09T01:17:20;97588.31;;;11.58;95.50
15674;BME280;7937;48.090;16.212;2022-09-09T01:24:03;97602.31;;;11.49;95.54
15674;BME280;7937;48.090;16.212;2022-09-09T01:27:29;97606.91;;;11.47;95.64
15674;BME280;7937;48.090;16.212;2022-09-09T01:30:35;97599.25;;;11.44;95.66
15674;BME280;7937;48.090;16.212;2022-09-09T01:33:38;97607.41;;;11.41;95.31
15674;BME280;7937;48.090;16.212;2022-09-09T01:36:48;97605.75;;;11.40;95.16
15674;BME280;7937;48.090;16.212;2022-09-09T01:39:52;97612.81;;;11.39;95.73
15674;BME280;7937;48.090;16.212;2022-09-09T01:42:55;97610.47;;;11.36;95.31
15674;BME280;7937;48.090;16.212;2022-09-09T01:46:00;97614.31;;;11.32;95.34
15674;BME280;7937;48.090;16.212;2022-09-09T01:49:06;97616.53;;;11.27;95.43
15674;BME280;7937;48.090;16.212;2022-09-09T01:52:09;97609.69;;;11.25;95.43
15674;BME280;7937;48.090;16.212;2022-09-09T01:55:13;97607.31;;;11.22;95.41
15674;BME280;7937;48.090;16.212;2022-09-09T01:58:51;97603.69;;;11.23;95.22
15674;BME280;7937;48.090;16.212;2022-09-09T02:02:09;97602.97;;;11.21;95.21
15674;BME280;7937;48.090;16.212;2022-09-09T02:05:39;97604.34;;;11.15;94.96
15674;BME280;7937;48.090;16.212;2022-09-09T02:09:02;97608.19;;;11.11;94.83
15674;BME280;7937;48.090;16.212;2022-09-09T02:12:14;97604.28;;;11.05;95.25
15674;BME280;7937;48.090;16.212;2022-09-09T02:16:50;97594.34;;;10.98;95.09
15674;BME280;7937;48.090;16.212;2022-09-09T02:19:24;97596.41;;;10.94;95.29
15674;BME280;7937;48.090;16.212;2022-09-09T02:22:43;97601.69;;;10.94;95.53
15674;BME280;7937;48.090;16.212;2022-09-09T02:25:50;97600.13;;;10.92;95.32
15674;BME280;7937;48.090;16.212;2022-09-09T02:28:58;97592.47;;;10.89;95.34
15674;BME280;7937;48.090;16.212;2022-09-09T02:32:04;97589.25;;;10.85;95.16
15674;BME280;7937;48.090;16.212;2022-09-09T02:35:18;97606.78;;;10.86;95.33
15674;BME280;7937;48.090;16.212;2022-09-09T02:38:26;97610.38;;;10.85;95.52
15674;BME280;7937;48.090;16.212;2022-09-09T02:41:42;97612.41;;;10.82;95.26
15674;BME280;7937;48.090;16.212;2022-09-09T02:44:45;97608.22;;;10.79;95.51
15674;BME280;7937;48.090;16.212;2022-09-09T02:48:03;97610.63;;;10.82;95.42
15674;BME280;7937;48.090;16.212;2022-09-09T02:51:17;97610.63;;;10.82;95.37
15674;BME280;7937;48.090;16.212;2022-09-09T02:54:25;97616.84;;;10.81;95.38
15674;BME280;7937;48.090;16.212;2022-09-09T02:57:31;97613.66;;;10.78;95.42
15674;BME280;7937;48.090;16.212;2022-09-09T03:00:36;97609.34;;;10.77;95.13
15674;BME280;7937;48.090;16.212;2022-09-09T03:03:38;97610.03;;;10.79;95.43
15674;BME280;7937;48.090;16.212;2022-09-09T03:06:45;97598.63;;;10.78;95.44
15674;BME280;7937;48.090;16.212;2022-09-09T03:09:52;97605.47;;;10.81;95.64
15674;BME280;7937;48.090;16.212;2022-09-09T03:12:58;97608.69;;;10.84;95.61
15674;BME280;7937;48.090;16.212;2022-09-09T03:16:04;97594.66;;;10.84;95.83
15674;BME280;7937;48.090;16.212;2022-09-09T03:19:12;97594.66;;;10.84;95.43
15674;BME280;7937;48.090;16.212;2022-09-09T03:22:15;97592.13;;;10.82;95.67
15674;BME280;7937;48.090;16.212;2022-09-09T03:25:18;97585.19;;;10.81;95.90
15674;BME280;7937;48.090;16.212;2022-09-09T03:28:20;97587.94;;;10.80;95.94
15674;BME280;7937;48.090;16.212;2022-09-09T03:31:24;97588.66;;;10.82;95.92
15674;BME280;7937;48.090;16.212;2022-09-09T03:34:27;97589.63;;;10.81;96.29
15674;BME280;7937;48.090;16.212;2022-09-09T03:37:31;97582.41;;;10.83;96.11
15674;BME280;7937;48.090;16.212;2022-09-09T03:40:33;97578.69;;;10.85;96.12
15674;BME280;7937;48.090;16.212;2022-09-09T03:43:35;97582.41;;;10.83;96.29
15674;BME280;7937;48.090;16.212;2022-09-09T03:46:38;97573.91;;;10.79;96.07
15674;BME280;7937;48.090;16.212;2022-09-09T03:49:40;97581.13;;;10.77;96.53
15674;BME280;7937;48.090;16.212;2022-09-09T03:52:42;97577.66;;;10.77;96.53
15674;BME280;7937;48.090;16.212;2022-09-09T03:55:54;97576.94;;;10.75;96.42
15674;BME280;7937;48.090;16.212;2022-09-09T03:58:58;97577.19;;;10.71;96.30
15674;BME280;7937;48.090;16.212;2022-09-09T04:02:01;97574.66;;;10.70;96.76
15674;BME280;7937;48.090;16.212;2022-09-09T04:05:04;97578.88;;;10.72;96.91
15674;BME280;7937;48.090;16.212;2022-09-09T04:08:08;97584.97;;;10.73;96.70
15674;BME280;7937;48.090;16.212;2022-09-09T04:11:10;97593.84;;;10.72;96.30
15674;BME280;7937;48.090;16.212;2022-09-09T04:14:12;97596.63;;;10.70;96.63
15674;BME280;7937;48.090;16.212;2022-09-09T04:17:14;97604.53;;;10.70;96.59
15674;BME280;7937;48.090;16.212;2022-09-09T04:20:17;97604.94;;;10.66;96.39
15674;BME280;7937;48.090;16.212;2022-09-09T04:23:19;97609.84;;;10.59;96.01
15674;BME280;7937;48.090;16.212;2022-09-09T04:26:22;97608.16;;;10.58;96.23
15674;BME280;7937;48.090;16.212;2022-09-09T04:29:24;97616.25;;;10.57;96.18
15674;BME280;7937;48.090;16.212;2022-09-09T04:32:26;97608.34;;;10.46;95.78
15674;BME280;7937;48.090;16.212;2022-09-09T04:35:29;97611.13;;;10.33;95.61
15674;BME280;7937;48.090;16.212;2022-09-09T04:38:31;97614.13;;;10.28;96.07
15674;BME280;7937;48.090;16.212;2022-09-09T04:41:33;97613.44;;;10.26;95.98
15674;BME280;7937;48.090;16.212;2022-09-09T04:44:35;97617.88;;;10.26;96.02
15674;BME280;7937;48.090;16.212;2022-09-09T04:47:37;97620.38;;;10.27;96.39
15674;BME280;7937;48.090;16.212;2022-09-09T04:50:40;97615.81;;;10.29;96.28
15674;BME280;7937;48.090;16.212;2022-09-09T04:53:45;97620.38;;;10.27;96.57
15674;BME280;7937;48.090;16.212;2022-09-09T04:56:50;97610.91;;;10.25;96.70
15674;BME280;7937;48.090;16.212;2022-09-09T04:59:52;97599.53;;;10.24;97.27
15674;BME280;7937;48.090;16.212;2022-09-09T05:02:55;97603.25;;;10.22;96.89
15674;BME280;7937;48.090;16.212;2022-09-09T05:06:19;97618.22;;;10.21;97.32
15674;BME280;7937;48.090;16.212;2022-09-09T05:09:23;97605.88;;;10.22;97.32
15674;BME280;7937;48.090;16.212;2022-09-09T05:12:26;97609.13;;;10.25;97.89
15674;BME280;7937;48.090;16.212;2022-09-09T05:15:29;97605.41;;;10.28;97.87
15674;BME280;7937;48.090;16.212;2022-09-09T05:18:31;97605.13;;;10.31;97.76
15674;BME280;7937;48.090;16.212;2022-09-09T05:21:34;97601.19;;;10.37;97.97
15674;BME280;7937;48.090;16.212;2022-09-09T05:24:36;97600.69;;;10.43;98.04
15674;BME280;7937;48.090;16.212;2022-09-09T05:27:38;97618.28;;;10.53;97.57
15674;BME280;7937;48.090;16.212;2022-09-09T05:30:41;97625.78;;;10.69;98.00
15674;BME280;7937;48.090;16.212;2022-09-09T05:33:44;97631.50;;;10.85;97.73
15674;BME280;7937;48.090;16.212;2022-09-09T05:36:48;97626.28;;;10.95;97.29
15674;BME280;7937;48.090;16.212;2022-09-09T05:39:50;97620.00;;;11.07;97.28
15674;BME280;7937;48.090;16.212;2022-09-09T05:42:52;97626.19;;;11.17;97.28
15674;BME280;7937;48.090;16.212;2022-09-09T05:46:19;97622.91;;;11.25;96.86
15674;BME280;7937;48.090;16.212;2022-09-09T05:49:22;97626.44;;;11.35;96.68
15674;BME280;7937;48.090;16.212;2022-09-09T05:52:25;97633.00;;;11.40;96.35
15674;BME280;7937;48.090;16.212;2022-09-09T05:55:29;97639.72;;;11.44;96.05
15674;BME280;7937;48.090;16.212;2022-09-09T05:58:34;97638.47;;;11.48;95.73
15674;BME280;7937;48.090;16.212;2022-09-09T06:01:48;97633.78;;;11.52;95.91
15674;BME280;7937;48.090;16.212;2022-09-09T06:05:05;97628.50;;;11.52;95.67
15674;BME280;7937;48.090;16.212;2022-09-09T06:08:07;97607.75;;;11.48;95.75
15674;BME280;7937;48.090;16.212;2022-09-09T06:11:16;97609.28;;;11.50;95.74
15674;BME280;7937;48.090;16.212;2022-09-09T06:14:19;97613.94;;;11.58;95.83
15674;BME280;7937;48.090;16.212;2022-09-09T06:17:23;97614.41;;;11.72;95.54
15674;BME280;7937;48.090;16.212;2022-09-09T06:20:25;97604.88;;;11.81;95.48
15674;BME280;7937;48.090;16.212;2022-09-09T06:23:28;97600.22;;;11.94;94.96
15674;BME280;7937;48.090;16.212;2022-09-09T06:26:39;97598.22;;;12.17;95.00
15674;BME280;7937;48.090;16.212;2022-09-09T06:29:47;97597.44;;;12.45;94.27
15674;BME280;7937;48.090;16.212;2022-09-09T06:32:51;97604.69;;;12.72;94.14
15674;BME280;7937;48.090;16.212;2022-09-09T06:35:54;97608.75;;;12.96;93.37
15674;BME280;7937;48.090;16.212;2022-09-09T06:38:56;97620.22;;;13.15;93.04
15674;BME280;7937;48.090;16.212;2022-09-09T06:41:59;97621.03;;;13.25;92.68
15674;BME280;7937;48.090;16.212;2022-09-09T06:45:25;97622.84;;;13.35;92.76
15674;BME280;7937;48.090;16.212;2022-09-09T06:48:31;97621.16;;;13.43;92.62
15674;BME280;7937;48.090;16.212;2022-09-09T06:51:36;97605.38;;;13.51;92.60
15674;BME280;7937;48.090;16.212;2022-09-09T06:54:46;97602.53;;;13.62;92.42
15674;BME280;7937;48.090;16.212;2022-09-09T06:57:49;97588.88;;;13.67;92.42
15674;BME280;7937;48.090;16.212;2022-09-09T07:01:05;97603.25;;;13.64;92.23
15674;BME280;7937;48.090;16.212;2022-09-09T07:04:10;97606.84;;;13.73;93.01
15674;BME280;7937;48.090;16.212;2022-09-09T07:07:15;97606.38;;;13.87;92.75
15674;BME280;7937;48.090;16.212;2022-09-09T07:10:18;97602.16;;;13.94;92.83
15674;BME280;7937;48.090;16.212;2022-09-09T07:13:25;97602.25;;;14.02;92.81
15674;BME280;7937;48.090;16.212;2022-09-09T07:16:28;97608.06;;;14.16;92.59
15674;BME280;7937;48.090;16.212;2022-09-09T07:19:34;97602.94;;;14.32;92.23
15674;BME280;7937;48.090;16.212;2022-09-09T07:22:38;97605.75;;;14.58;91.28
15674;BME280;7937;48.090;16.212;2022-09-09T07:25:46;97611.94;;;14.76;90.75
15674;BME280;7937;48.090;16.212;2022-09-09T07:28:50;97612.00;;;14.84;90.56
15674;BME280;7937;48.090;16.212;2022-09-09T07:31:53;97612.69;;;14.86;90.01
15674;BME280;7937;48.090;16.212;2022-09-09T07:35:00;97606.59;;;15.11;89.58
15674;BME280;7937;48.090;16.212;2022-09-09T07:38:03;97609.81;;;15.59;88.02
15674;BME280;7937;48.090;16.212;2022-09-09T07:41:10;97613.53;;;15.92;87.09
15674;BME280;7937;48.090;16.212;2022-09-09T07:44:20;97612.81;;;16.15;86.60
15674;BME280;7937;48.090;16.212;2022-09-09T07:47:28;97618.03;;;16.33;86.16
15674;BME280;7937;48.090;16.212;2022-09-09T07:50:30;97629.56;;;16.42;86.28
15674;BME280;7937;48.090;16.212;2022-09-09T07:53:33;97626.91;;;16.50;86.54
15674;BME280;7937;48.090;16.212;2022-09-09T07:56:38;97629.84;;;16.73;86.00
15674;BME280;7937;48.090;16.212;2022-09-09T07:59:42;97623.06;;;16.94;84.56
15674;BME280;7937;48.090;16.212;2022-09-09T08:02:45;97623.75;;;17.13;83.82
15674;BME280;7937;48.090;16.212;2022-09-09T08:05:48;97625.44;;;17.46;82.82
15674;BME280;7937;48.090;16.212;2022-09-09T08:08:51;97624.94;;;17.83;81.47
15674;BME280;7937;48.090;16.212;2022-09-09T08:11:55;97616.00;;;18.15;80.57
15674;BME280;7937;48.090;16.212;2022-09-09T08:14:58;97618.06;;;18.44;79.39
15674;BME280;7937;48.090;16.212;2022-09-09T08:18:04;97621.22;;;18.78;78.03
15674;BME280;7937;48.090;16.212;2022-09-09T08:21:13;97620.19;;;19.10;76.72
15674;BME280;7937;48.090;16.212;2022-09-09T08:24:16;97624.81;;;19.16;75.05
15674;BME280;7937;48.090;16.212;2022-09-09T08:27:21;97622.88;;;19.33;73.49
15674;BME280;7937;48.090;16.212;2022-09-09T08:30:24;97621.94;;;19.49;73.78
15674;BME280;7937;48.090;16.212;2022-09-09T08:33:27;60274.75;;;-144.22;100.00
15674;BME280;7937;48.090;16.212;2022-09-09T08:36:32;60274.75;;;-144.22;100.00
15674;BME280;7937;48.090;16.212;2022-09-09T08:39:38;60274.75;;;-144.22;100.00
15674;BME280;7937;48.090;16.212;2022-09-09T08:42:49;60274.75;;;-144.22;100.00
15674;BME280;7937;48.090;16.212;2022-09-09T08:46:10;60274.75;;;-144.22;100.00
15674;BME280;7937;48.090;16.212;2022-09-09T08:53:02;60274.75;;;21.36;100.00
15674;BME280;7937;48.090;16.212;2022-09-09T08:56:13;60274.75;;;-144.22;100.00
15674;BME280;7937;48.090;16.212;2022-09-09T08:59:19;60274.75;;;22.78;100.00
15674;BME280;7937;48.090;16.212;2022-09-09T09:12:15;60274.75;;;-144.22;100.00
15674;BME280;7937;48.090;16.212;2022-09-09T09:15:23;97595.13;;;21.39;63.14
15674;BME280;7937;48.090;16.212;2022-09-09T09:18:31;97595.31;;;21.37;64.01
15674;BME280;7937;48.090;16.212;2022-09-09T09:21:42;97591.94;;;21.28;62.67
15674;BME280;7937;48.090;16.212;2022-09-09T09:28:15;97586.44;;;21.36;63.60
15674;BME280;7937;48.090;16.212;2022-09-09T09:31:22;97588.56;;;21.41;61.00
15674;BME280;7937;48.090;16.212;2022-09-09T09:34:25;60274.75;;;21.58;100.00
15674;BME280;7937;48.090;16.212;2022-09-09T09:37:32;60274.75;;;-144.22;100.00
15674;BME280;7937;48.090;16.212;2022-09-09T09:40:48;60274.75;;;-144.22;100.00
15674;BME280;7937;48.090;16.212;2022-09-09T09:43:54;60274.75;;;-144.22;100.00
15674;BME280;7937;48.090;16.212;2022-09-09T09:47:17;60274.75;;;-144.22;100.00
15674;BME280;7937;48.090;16.212;2022-09-09T09:51:01;60274.75;;;26.93;100.00
15674;BME280;7937;48.090;16.212;2022-09-09T09:54:24;60274.75;;;-144.22;100.00
15674;BME280;7937;48.090;16.212;2022-09-09T09:57:33;60274.75;;;-144.22;100.00
15674;BME280;7937;48.090;16.212;2022-09-09T10:00:50;60274.75;;;104.84;100.00
15674;BME280;7937;48.090;16.212;2022-09-09T10:03:59;60274.75;;;-144.22;100.00
15674;BME280;7937;48.090;16.212;2022-09-09T10:07:11;60274.75;;;-144.22;100.00
15674;BME280;7937;48.090;16.212;2022-09-09T10:10:22;60274.75;;;-144.22;100.00
15674;BME280;7937;48.090;16.212;2022-09-09T10:24:08;60274.75;;;-144.22;100.00
15674;BME280;7937;48.090;16.212;2022-09-09T10:27:19;60274.75;;;-144.22;100.00
15674;BME280;7937;48.090;16.212;2022-09-09T10:30:31;60274.75;;;-144.22;100.00
15674;BME280;7937;48.090;16.212;2022-09-09T10:33:51;60274.75;;;-144.22;100.00
15674;BME280;7937;48.090;16.212;2022-09-09T10:36:55;60274.75;;;-144.22;100.00
15674;BME280;7937;48.090;16.212;2022-09-09T10:47:46;60274.75;;;-144.22;100.00
15674;BME280;7937;48.090;16.212;2022-09-09T10:50:53;60274.75;;;-144.22;100.00
15674;BME280;7937;48.090;16.212;2022-09-09T10:54:24;60274.75;;;25.64;100.00
15674;BME280;7937;48.090;16.212;2022-09-09T10:57:40;60274.75;;;-144.22;100.00
15674;BME280;7937;48.090;16.212;2022-09-09T11:00:49;60274.75;;;104.84;100.00
15674;BME280;7937;48.090;16.212;2022-09-09T11:04:04;60274.75;;;-144.22;100.00
15674;BME280;7937;48.090;16.212;2022-09-09T11:07:11;60274.75;;;32.13;100.00
15674;BME280;7937;48.090;16.212;2022-09-09T11:13:24;60274.75;;;32.13;100.00
15674;BME280;7937;48.090;16.212;2022-09-09T11:19:44;60274.75;;;63.28;100.00
15674;BME280;7937;48.090;16.212;2022-09-09T11:22:52;60274.75;;;-144.22;100.00
15674;BME280;7937;48.090;16.212;2022-09-09T11:26:00;60274.75;;;-144.22;100.00
15674;BME280;7937;48.090;16.212;2022-09-09T11:29:35;60274.75;;;-144.22;100.00
15674;BME280;7937;48.090;16.212;2022-09-09T11:39:48;60274.75;;;-144.22;100.00
15674;BME280;7937;48.090;16.212;2022-09-09T11:43:21;60274.75;;;-144.22;100.00
15674;BME280;7937;48.090;16.212;2022-09-09T11:46:36;60274.75;;;-144.22;100.00
15674;BME280;7937;48.090;16.212;2022-09-09T11:49:41;60274.75;;;-144.22;100.00
15674;BME280;7937;48.090;16.212;2022-09-09T11:52:46;60274.75;;;32.13;100.00
15674;BME280;7937;48.090;16.212;2022-09-09T11:56:12;60274.75;;;-144.22;100.00
15674;BME280;7937;48.090;16.212;2022-09-09T11:59:25;81346.41;;;26.67;100.00
15674;BME280;7937;48.090;16.212;2022-09-09T12:02:28;60274.75;;;-144.22;100.00
15674;BME280;7937;48.090;16.212;2022-09-09T12:05:42;60274.75;;;-144.22;100.00
15674;BME280;7937;48.090;16.212;2022-09-09T12:08:51;60274.75;;;-144.22;100.00
15674;BME280;7937;48.090;16.212;2022-09-09T12:12:22;60274.75;;;-144.22;100.00
15674;BME280;7937;48.090;16.212;2022-09-09T12:15:28;60274.75;;;-144.22;100.00
15674;BME280;7937;48.090;16.212;2022-09-09T12:18:40;60274.75;;;42.51;100.00
15674;BME280;7937;48.090;16.212;2022-09-09T12:22:06;60274.75;;;-144.22;100.00
15674;BME280;7937;48.090;16.212;2022-09-09T12:25:31;60274.75;;;-144.22;100.00
15674;BME280;7937;48.090;16.212;2022-09-09T12:28:42;60274.75;;;-144.22;100.00
15674;BME280;7937;48.090;16.212;2022-09-09T12:34:51;60274.75;;;-144.22;100.00
15674;BME280;7937;48.090;16.212;2022-09-09T12:38:01;60274.75;;;-144.22;100.00
15674;BME280;7937;48.090;16.212;2022-09-09T12:41:05;60274.75;;;-144.22;100.00
15674;BME280;7937;48.090;16.212;2022-09-09T12:44:10;60274.75;;;-144.22;100.00
15674;BME280;7937;48.090;16.212;2022-09-09T12:47:13;60274.75;;;-144.22;100.00
15674;BME280;7937;48.090;16.212;2022-09-09T12:50:26;60274.75;;;-144.22;100.00
15674;BME280;7937;48.090;16.212;2022-09-09T12:53:35;60274.75;;;-144.22;100.00
15674;BME280;7937;48.090;16.212;2022-09-09T12:56:38;60274.75;;;-144.22;100.00
15674;BME280;7937;48.090;16.212;2022-09-09T12:59:43;60274.75;;;-144.22;100.00
15674;BME280;7937;48.090;16.212;2022-09-09T13:05:58;60274.75;;;-144.22;100.00
15674;BME280;7937;48.090;16.212;2022-09-09T13:09:04;60274.75;;;-144.22;100.00
15674;BME280;7937;48.090;16.212;2022-09-09T13:12:11;60274.75;;;-144.22;100.00
15674;BME280;7937;48.090;16.212;2022-09-09T13:15:24;60274.75;;;-144.22;100.00
15674;BME280;7937;48.090;16.212;2022-09-09T13:18:36;60274.75;;;-144.22;100.00
15674;BME280;7937;48.090;16.212;2022-09-09T13:21:40;60274.75;;;-144.22;100.00
15674;BME280;7937;48.090;16.212;2022-09-09T13:24:42;60274.75;;;-144.22;100.00
15674;BME280;7937;48.090;16.212;2022-09-09T13:27:57;60274.75;;;-144.22;100.00
15674;BME280;7937;48.090;16.212;2022-09-09T13:31:04;60274.75;;;-144.22;100.00
15674;BME280;7937;48.090;16.212;2022-09-09T13:34:28;60274.75;;;-144.22;100.00
15674;BME280;7937;48.090;16.212;2022-09-09T13:37:35;60274.75;;;-144.22;100.00
15674;BME280;7937;48.090;16.212;2022-09-09T13:40:38;60274.75;;;-144.22;100.00
15674;BME280;7937;48.090;16.212;2022-09-09T13:43:45;60274.75;;;-144.22;100.00
15674;BME280;7937;48.090;16.212;2022-09-09T13:53:25;60274.75;;;-144.22;100.00
15674;BME280;7937;48.090;16.212;2022-09-09T13:56:27;60274.75;;;-144.22;100.00
15674;BME280;7937;48.090;16.212;2022-09-09T13:59:30;60274.75;;;-144.22;100.00
15674;BME280;7937;48.090;16.212;2022-09-09T14:02:53;60274.75;;;-144.22;100.00
15674;BME280;7937;48.090;16.212;2022-09-09T14:05:56;60274.75;;;-144.22;100.00
15674;BME280;7937;48.090;16.212;2022-09-09T14:08:59;60274.75;;;-144.22;100.00
15674;BME280;7937;48.090;16.212;2022-09-09T14:12:01;60274.75;;;-144.22;100.00
15674;BME280;7937;48.090;16.212;2022-09-09T14:15:06;60274.75;;;-144.22;100.00
15674;BME280;7937;48.090;16.212;2022-09-09T14:18:11;60274.75;;;-144.22;100.00
15674;BME280;7937;48.090;16.212;2022-09-09T14:21:14;60274.75;;;-144.22;100.00
15674;BME280;7937;48.090;16.212;2022-09-09T14:24:17;60274.75;;;-144.22;100.00
15674;BME280;7937;48.090;16.212;2022-09-09T14:27:19;60274.75;;;-144.22;100.00
15674;BME280;7937;48.090;16.212;2022-09-09T14:30:21;60274.75;;;-144.22;100.00
15674;BME280;7937;48.090;16.212;2022-09-09T14:33:23;60274.75;;;-144.22;100.00
15674;BME280;7937;48.090;16.212;2022-09-09T14:36:26;60274.75;;;-144.22;100.00
15674;BME280;7937;48.090;16.212;2022-09-09T14:39:28;60274.75;;;-144.22;100.00
15674;BME280;7937;48.090;16.212;2022-09-09T14:42:30;60274.75;;;-144.22;100.00
15674;BME280;7937;48.090;16.212;2022-09-09T14:45:33;60274.75;;;-144.22;100.00
15674;BME280;7937;48.090;16.212;2022-09-09T14:48:38;60274.75;;;-144.22;100.00
15674;BME280;7937;48.090;16.212;2022-09-09T14:51:42;60274.75;;;-144.22;100.00
15674;BME280;7937;48.090;16.212;2022-09-09T14:54:44;60274.75;;;-144.22;100.00
15674;BME280;7937;48.090;16.212;2022-09-09T14:57:46;60274.75;;;-144.22;100.00
15674;BME280;7937;48.090;16.212;2022-09-09T15:00:48;60274.75;;;-144.22;100.00
15674;BME280;7937;48.090;16.212;2022-09-09T15:03:55;60274.75;;;-144.22;100.00
15674;BME280;7937;48.090;16.212;2022-09-09T15:06:57;60274.75;;;-144.22;100.00
15674;BME280;7937;48.090;16.212;2022-09-09T15:10:00;60274.75;;;-144.22;100.00
15674;BME280;7937;48.090;16.212;2022-09-09T15:13:01;60274.75;;;-144.22;100.00
15674;BME280;7937;48.090;16.212;2022-09-09T15:16:09;60274.75;;;-144.22;100.00
15674;BME280;7937;48.090;16.212;2022-09-09T15:19:11;60274.75;;;-144.22;100.00
15674;BME280;7937;48.090;16.212;2022-09-09T15:22:13;60274.75;;;-144.22;100.00
15674;BME280;7937;48.090;16.212;2022-09-09T15:25:16;60274.75;;;-144.22;100.00
15674;BME280;7937;48.090;16.212;2022-09-09T15:28:20;60274.75;;;-144.22;100.00
15674;BME280;7937;48.090;16.212;2022-09-09T15:31:24;60274.75;;;-144.22;100.00
15674;BME280;7937;48.090;16.212;2022-09-09T15:34:27;60274.75;;;-144.22;100.00
15674;BME280;7937;48.090;16.212;2022-09-09T15:37:29;60274.75;;;-144.22;100.00
15674;BME280;7937;48.090;16.212;2022-09-09T15:40:31;60274.75;;;-144.22;100.00
15674;BME280;7937;48.090;16.212;2022-09-09T15:43:36;60274.75;;;-144.22;100.00
15674;BME280;7937;48.090;16.212;2022-09-09T15:46:40;60274.75;;;-144.22;100.00
15674;BME280;7937;48.090;16.212;2022-09-09T15:49:43;60274.75;;;-144.22;100.00
15674;BME280;7937;48.090;16.212;2022-09-09T15:52:45;60274.75;;;-144.22;100.00
15674;BME280;7937;48.090;16.212;2022-09-09T15:55:47;60274.75;;;-144.22;100.00
15674;BME280;7937;48.090;16.212;2022-09-09T15:58:57;60274.75;;;-144.22;100.00
15674;BME280;7937;48.090;16.212;2022-09-09T16:02:00;60274.75;;;-144.22;100.00
15674;BME280;7937;48.090;16.212;2022-09-09T16:05:03;60274.75;;;-144.22;100.00
15674;BME280;7937;48.090;16.212;2022-09-09T16:08:06;60274.75;;;-144.22;100.00
15674;BME280;7937;48.090;16.212;2022-09-09T16:11:11;60274.75;;;-144.22;100.00
15674;BME280;7937;48.090;16.212;2022-09-09T16:14:16;60274.75;;;-144.22;100.00
15674;BME280;7937;48.090;16.212;2022-09-09T16:17:18;60274.75;;;-144.22;100.00
15674;BME280;7937;48.090;16.212;2022-09-09T16:20:22;60274.75;;;-144.22;100.00
15674;BME280;7937;48.090;16.212;2022-09-09T16:23:24;60274.75;;;-144.22;100.00
15674;BME280;7937;48.090;16.212;2022-09-09T16:26:27;60274.75;;;-144.22;100.00
15674;BME280;7937;48.090;16.212;2022-09-09T16:29:29;60274.75;;;-144.22;100.00
15674;BME280;7937;48.090;16.212;2022-09-09T16:32:31;60274.75;;;-144.22;100.00
15674;BME280;7937;48.090;16.212;2022-09-09T16:35:36;60274.75;;;-144.22;100.00
15674;BME280;7937;48.090;16.212;2022-09-09T16:38:39;60274.75;;;-144.22;100.00
15674;BME280;7937;48.090;16.212;2022-09-09T16:41:43;60274.75;;;-144.22;100.00
15674;BME280;7937;48.090;16.212;2022-09-09T16:44:46;60274.75;;;-144.22;100.00
15674;BME280;7937;48.090;16.212;2022-09-09T16:47:48;60274.75;;;-144.22;100.00
15674;BME280;7937;48.090;16.212;2022-09-09T16:50:50;60274.75;;;-144.22;100.00
15674;BME280;7937;48.090;16.212;2022-09-09T16:53:53;60274.75;;;-144.22;100.00
15674;BME280;7937;48.090;16.212;2022-09-09T16:56:56;60274.75;;;-144.22;100.00
15674;BME280;7937;48.090;16.212;2022-09-09T16:59:59;60274.75;;;-144.22;100.00
15674;BME280;7937;48.090;16.212;2022-09-09T17:03:01;60274.75;;;-144.22;100.00
15674;BME280;7937;48.090;16.212;2022-09-09T17:06:09;60274.75;;;-144.22;100.00
15674;BME280;7937;48.090;16.212;2022-09-09T17:09:11;60274.75;;;-144.22;100.00
15674;BME280;7937;48.090;16.212;2022-09-09T17:12:14;60274.75;;;-144.22;100.00
15674;BME280;7937;48.090;16.212;2022-09-09T17:15:17;60274.75;;;-144.22;100.00
15674;BME280;7937;48.090;16.212;2022-09-09T17:18:20;60274.75;;;-144.22;100.00
15674;BME280;7937;48.090;16.212;2022-09-09T17:21:24;60274.75;;;-144.22;100.00
15674;BME280;7937;48.090;16.212;2022-09-09T17:24:27;60274.75;;;-144.22;100.00
15674;BME280;7937;48.090;16.212;2022-09-09T17:27:31;60274.75;;;-144.22;100.00
15674;BME280;7937;48.090;16.212;2022-09-09T17:30:36;60274.75;;;-144.22;100.00